createdAt,value
2022-11-15T00:01:15.217Z,95.05
2022-11-15T00:04:00.531Z,94.65
2022-11-15T00:06:46.051Z,95.78
2022-11-15T00:09:31.335Z,95.59
2022-11-15T00:12:16.635Z,95.76
2022-11-15T00:15:02.133Z,95.57
2022-11-15T00:17:50.696Z,95.71
2022-11-15T00:20:36.382Z,95.32
2022-11-15T00:23:21.755Z,94.91
2022-11-15T00:26:07.370Z,95.08
2022-11-15T00:28:55.895Z,95.60
2022-11-15T00:31:41.619Z,95.74
2022-11-15T00:34:27.169Z,94.75
2022-11-15T00:37:12.628Z,95.67
2022-11-15T00:39:57.845Z,95.07
2022-11-15T00:42:43.514Z,94.90
2022-11-15T00:45:28.686Z,95.25
2022-11-15T00:48:14.092Z,95.34
2022-11-15T00:50:59.641Z,95.75
2022-11-15T00:53:45.134Z,95.04
2022-11-15T00:56:30.650Z,94.87
2022-11-15T00:59:15.881Z,95.73
2022-11-15T01:02:01.282Z,95.17
2022-11-15T01:04:46.536Z,95.25
2022-11-15T01:07:32.024Z,95.49
2022-11-15T01:10:17.710Z,95.14
2022-11-15T01:13:03.389Z,95.56
2022-11-15T01:15:48.793Z,95.43
2022-11-15T01:18:34.345Z,95.53
2022-11-15T01:21:21.177Z,95.78
2022-11-15T01:24:06.801Z,95.44
2022-11-15T01:26:52.345Z,95.28
2022-11-15T01:29:37.639Z,95.55
2022-11-15T01:32:23.075Z,96.21
2022-11-15T01:35:08.477Z,96.07
2022-11-15T01:37:53.968Z,95.16
2022-11-15T01:40:39.298Z,95.75
2022-11-15T01:43:29.075Z,95.90
2022-11-15T01:46:26.769Z,95.51
2022-11-15T01:49:22.248Z,95.19
2022-11-15T01:52:12.059Z,95.48
2022-11-15T01:55:07.483Z,95.44
2022-11-15T01:57:57.471Z,95.37
2022-11-15T02:00:43.075Z,95.67
2022-11-15T02:03:39.021Z,95.46
2022-11-15T02:06:24.490Z,95.67
2022-11-15T02:09:10.572Z,95.93
2022-11-15T02:11:57.070Z,95.57
2022-11-15T02:14:46.422Z,96.34
2022-11-15T02:17:47.070Z,95.96
2022-11-15T02:20:57.887Z,96.14
2022-11-15T02:23:46.378Z,95.92
2022-11-15T02:26:37.784Z,96.21
2022-11-15T02:29:39.037Z,96.03
2022-11-15T02:32:33.748Z,95.68
2022-11-15T02:35:21.948Z,95.53
2022-11-15T02:38:28.707Z,96.34
2022-11-15T02:41:41.038Z,95.95
2022-11-15T02:44:34.824Z,96.37
2022-11-15T02:47:22.094Z,96.41
2022-11-15T02:50:13.770Z,95.49
2022-11-15T02:52:59.098Z,96.47
2022-11-15T02:55:52.592Z,95.25
2022-11-15T02:58:59.320Z,96.33
2022-11-15T03:02:03.096Z,95.67
2022-11-15T03:04:53.711Z,95.35
2022-11-15T03:08:05.880Z,96.36
2022-11-15T03:11:12.708Z,96.05
2022-11-15T03:14:02.206Z,96.02
2022-11-15T03:17:13.118Z,95.62
2022-11-15T03:20:02.135Z,95.90
2022-11-15T03:22:50.511Z,96.01
2022-11-15T03:25:42.324Z,95.91
2022-11-15T03:28:39.829Z,96.03
2022-11-15T03:31:50.461Z,95.88
2022-11-15T03:34:45.553Z,95.78
2022-11-15T03:37:40.244Z,96.14
2022-11-15T03:40:41.982Z,95.87
2022-11-15T03:43:40.962Z,96.07
2022-11-15T03:46:34.077Z,95.44
2022-11-15T03:49:26.995Z,95.88
2022-11-15T03:52:12.769Z,95.65
2022-11-15T03:55:01.145Z,95.86
2022-11-15T03:57:49.309Z,95.92
2022-11-15T04:00:34.953Z,95.32
2022-11-15T04:03:20.554Z,95.51
2022-11-15T04:06:05.931Z,96.06
2022-11-15T04:08:51.108Z,96.14
2022-11-15T04:11:36.546Z,96.07
2022-11-15T04:14:21.943Z,95.83
2022-11-15T04:17:07.260Z,95.69
2022-11-15T04:20:11.106Z,96.18
2022-11-15T04:23:16.601Z,95.78
2022-11-15T04:26:11.168Z,95.39
2022-11-15T04:29:14.958Z,95.39
2022-11-15T04:32:00.681Z,95.80
2022-11-15T04:34:46.283Z,95.68
2022-11-15T04:37:31.849Z,95.89
2022-11-15T04:40:17.428Z,95.64
2022-11-15T04:43:04.555Z,95.61
2022-11-15T04:45:49.945Z,96.62
2022-11-15T04:48:35.184Z,95.83
2022-11-15T04:51:21.111Z,96.23
2022-11-15T04:54:06.575Z,96.04
2022-11-15T04:56:51.787Z,95.89
2022-11-15T04:59:37.112Z,96.05
2022-11-15T05:02:22.453Z,96.12
2022-11-15T05:05:08.527Z,95.20
2022-11-15T05:07:53.903Z,95.51
2022-11-15T05:10:39.553Z,95.93
2022-11-15T05:13:25.250Z,96.05
2022-11-15T05:16:10.641Z,95.42
2022-11-15T05:18:56.214Z,95.95
2022-11-15T05:21:41.811Z,96.21
2022-11-15T05:24:27.482Z,95.49
2022-11-15T05:27:13.029Z,95.23
2022-11-15T05:29:58.086Z,95.83
2022-11-15T05:32:44.207Z,95.50
2022-11-15T05:35:41.441Z,95.65
2022-11-15T05:38:27.260Z,96.36
2022-11-15T05:41:14.108Z,96.04
2022-11-15T05:43:59.890Z,95.78
2022-11-15T05:46:46.272Z,95.62
2022-11-15T05:49:36.212Z,96.25
2022-11-15T05:52:26.611Z,95.92
2022-11-15T05:55:12.198Z,96.10
2022-11-15T05:57:57.450Z,95.23
2022-11-15T06:00:44.314Z,95.32
2022-11-15T06:03:29.854Z,95.59
2022-11-15T06:06:16.606Z,95.61
2022-11-15T06:09:02.153Z,95.49
2022-11-15T06:11:47.692Z,95.23
2022-11-15T06:14:33.009Z,94.87
2022-11-15T06:17:18.298Z,95.10
2022-11-15T06:20:04.517Z,95.43
2022-11-15T06:22:49.989Z,95.36
2022-11-15T06:25:35.489Z,94.73
2022-11-15T06:28:20.612Z,94.45
2022-11-15T06:31:08.681Z,95.20
2022-11-15T06:33:54.277Z,94.71
2022-11-15T06:36:39.576Z,94.46
2022-11-15T06:39:24.975Z,94.22
2022-11-15T06:42:10.468Z,94.27
2022-11-15T06:44:56.094Z,94.67
2022-11-15T06:47:48.055Z,93.92
2022-11-15T06:50:33.504Z,94.01
2022-11-15T06:53:18.762Z,94.73
2022-11-15T06:56:06.728Z,94.50
2022-11-15T06:58:52.229Z,93.76
2022-11-15T07:01:37.481Z,94.56
2022-11-15T07:04:23.081Z,93.71
2022-11-15T07:07:08.705Z,94.20
2022-11-15T07:09:54.496Z,94.25
2022-11-15T07:12:40.081Z,93.93
2022-11-15T07:15:27.331Z,93.88
2022-11-15T07:18:12.776Z,93.50
2022-11-15T07:21:03.062Z,93.15
2022-11-15T07:23:48.285Z,93.52
2022-11-15T07:26:33.727Z,93.76
2022-11-15T07:29:19.060Z,93.13
2022-11-15T07:32:04.634Z,92.77
2022-11-15T07:34:49.812Z,92.90
2022-11-15T07:37:35.096Z,93.51
2022-11-15T07:40:20.683Z,93.01
2022-11-15T07:43:08.662Z,93.73
2022-11-15T07:45:58.788Z,93.01
2022-11-15T07:48:45.372Z,93.67
2022-11-15T07:51:31.363Z,93.27
2022-11-15T07:54:16.906Z,93.01
2022-11-15T07:57:06.996Z,93.42
2022-11-15T07:59:53.481Z,93.69
2022-11-15T08:02:39.300Z,93.88
2022-11-15T08:05:24.927Z,93.66
2022-11-15T08:08:12.218Z,92.67
2022-11-15T08:11:00.699Z,93.13
2022-11-15T08:13:45.689Z,92.82
2022-11-15T08:16:31.141Z,94.00
2022-11-15T08:19:16.760Z,93.86
2022-11-15T08:22:02.218Z,93.18
2022-11-15T08:24:47.628Z,93.13
2022-11-15T08:27:32.932Z,92.96
2022-11-15T08:30:18.411Z,93.31
2022-11-15T08:33:04.602Z,92.65
2022-11-15T08:35:50.057Z,92.36
2022-11-15T08:38:35.832Z,92.52
2022-11-15T08:41:32.812Z,92.65
2022-11-15T08:44:18.165Z,93.28
2022-11-15T08:47:03.912Z,93.45
2022-11-15T08:49:49.632Z,92.89
2022-11-15T08:52:35.111Z,92.78
2022-11-15T08:55:23.503Z,92.54
2022-11-15T08:58:10.307Z,92.76
2022-11-15T09:00:56.544Z,92.72
2022-11-15T09:03:42.530Z,92.90
2022-11-15T09:06:28.312Z,92.76
2022-11-15T09:09:13.692Z,92.40
2022-11-15T09:12:02.509Z,92.34
2022-11-15T09:14:48.246Z,92.76
2022-11-15T09:17:33.592Z,92.11
2022-11-15T09:20:18.813Z,92.02
2022-11-15T09:23:05.048Z,91.32
2022-11-15T09:25:50.513Z,91.85
2022-11-15T09:31:39.385Z,91.44
2022-11-15T09:34:24.839Z,91.22
2022-11-15T09:37:10.181Z,91.38
2022-11-15T09:39:55.619Z,91.39
2022-11-15T09:42:56.775Z,91.13
2022-11-15T10:18:09.737Z,93.61
2022-11-15T10:21:04.012Z,92.92
2022-11-15T10:23:32.973Z,92.45
2022-11-15T10:26:06.436Z,91.45
2022-11-15T10:28:34.125Z,91.41
2022-11-15T10:31:05.789Z,91.01
2022-11-15T10:33:35.451Z,91.21
2022-11-15T10:36:17.148Z,90.31
2022-11-15T10:38:49.814Z,89.68
2022-11-15T10:41:38.834Z,89.89
2022-11-15T10:44:08.267Z,89.11
2022-11-15T10:46:46.637Z,89.25
2022-11-15T10:49:21.476Z,88.73
2022-11-15T10:51:55.766Z,89.23
2022-11-15T10:54:28.757Z,88.80
2022-11-15T10:56:58.372Z,89.50
2022-11-15T11:40:31.245Z,81.94
2022-11-15T15:22:05.706Z,73.41
2022-11-15T15:24:33.285Z,73.81
2022-11-15T15:27:00.189Z,73.67
2022-11-15T15:29:27.039Z,73.89
2022-11-15T15:31:53.928Z,73.85
2022-11-15T15:34:21.550Z,74.37
2022-11-15T15:36:48.583Z,73.59
2022-11-15T15:39:15.416Z,73.85
2022-11-15T15:41:42.488Z,74.10
2022-11-15T15:44:09.355Z,73.71
2022-11-15T15:46:36.445Z,74.36
2022-11-15T15:49:03.439Z,74.34
2022-11-15T15:51:30.366Z,75.34
2022-11-15T15:53:59.176Z,75.37
2022-11-15T15:56:26.187Z,74.86
2022-11-15T15:58:53.672Z,75.45
2022-11-15T16:01:20.960Z,75.20
2022-11-15T16:03:48.052Z,75.82
2022-11-15T16:06:37.845Z,75.76
2022-11-15T16:09:15.020Z,75.54
2022-11-15T16:11:44.724Z,76.41
2022-11-15T16:14:11.928Z,75.63
2022-11-15T16:16:39.166Z,76.30
2022-11-15T16:19:06.084Z,76.26
2022-11-15T16:21:33.026Z,76.52
2022-11-15T16:24:01.049Z,77.09
2022-11-15T16:26:29.986Z,77.63
2022-11-15T16:28:57.121Z,77.29
2022-11-15T16:31:24.013Z,78.13
2022-11-15T16:33:50.940Z,78.58
2022-11-15T16:36:30.738Z,77.56
2022-11-15T16:38:58.904Z,77.92
2022-11-15T16:41:26.469Z,77.39
2022-11-15T16:43:53.521Z,77.57
2022-11-15T16:46:22.933Z,78.33
2022-11-15T16:48:50.739Z,78.62
2022-11-15T16:51:18.068Z,78.43
2022-11-15T16:53:45.575Z,78.19
2022-11-15T16:56:22.668Z,77.58
2022-11-15T16:58:49.648Z,78.18
2022-11-15T17:01:34.004Z,78.13
2022-11-15T17:04:12.826Z,78.55
2022-11-15T17:06:41.357Z,78.19
2022-11-15T17:09:16.189Z,77.72
2022-11-15T17:11:43.884Z,78.03
2022-11-15T17:14:11.819Z,78.38
2022-11-15T17:16:42.480Z,78.38
2022-11-15T17:19:21.963Z,78.05
2022-11-15T17:21:52.084Z,77.80
2022-11-15T17:24:21.261Z,78.03
2022-11-15T17:26:48.342Z,77.78
2022-11-15T17:29:15.272Z,77.78
2022-11-15T17:31:42.190Z,78.18
2022-11-15T17:34:09.128Z,78.15
2022-11-15T17:36:36.325Z,78.98
2022-11-15T17:39:04.519Z,78.75
2022-11-15T17:41:31.941Z,77.05
2022-11-15T17:44:00.451Z,77.50
2022-11-15T17:46:28.556Z,77.56
2022-11-15T17:48:57.040Z,78.33
2022-11-15T17:51:24.360Z,78.30
2022-11-15T17:53:51.654Z,78.49
2022-11-15T17:56:23.506Z,78.14
2022-11-15T17:58:53.160Z,78.50
2022-11-15T18:01:21.543Z,78.37
2022-11-15T18:03:49.343Z,78.37
2022-11-15T18:06:17.646Z,77.96
2022-11-15T18:08:46.236Z,78.25
2022-11-15T18:11:17.563Z,78.03
2022-11-15T18:13:51.910Z,78.84
2022-11-15T18:16:21.732Z,78.81
2022-11-15T18:18:49.118Z,79.04
2022-11-15T18:21:21.920Z,78.79
2022-11-15T18:23:53.432Z,78.87
2022-11-15T18:26:25.682Z,79.17
2022-11-15T18:28:57.139Z,79.81
2022-11-15T18:31:28.120Z,79.79
2022-11-15T18:33:55.330Z,79.54
2022-11-15T18:36:25.275Z,79.78
2022-11-15T18:39:00.784Z,79.95
2022-11-15T18:41:30.973Z,80.32
2022-11-15T18:43:59.673Z,80.88
2022-11-15T18:46:29.988Z,79.68
2022-11-15T18:48:59.192Z,79.60
2022-11-15T18:51:30.090Z,79.61
2022-11-15T18:54:00.310Z,80.08
2022-11-15T18:56:28.689Z,80.92
2022-11-15T18:58:59.270Z,81.15
2022-11-15T19:01:35.144Z,79.78
2022-11-15T19:04:21.019Z,81.75
2022-11-15T19:06:50.199Z,81.77
2022-11-15T19:09:19.056Z,82.51
2022-11-15T19:11:47.686Z,81.82
2022-11-15T19:14:18.178Z,82.40
2022-11-15T19:16:52.411Z,82.03
2022-11-15T19:19:28.542Z,82.45
2022-11-15T19:21:57.327Z,82.63
2022-11-15T19:24:25.019Z,82.89
2022-11-15T19:26:51.916Z,82.46
2022-11-15T19:29:18.972Z,83.80
2022-11-15T19:31:47.726Z,83.53
2022-11-15T19:34:14.772Z,82.93
2022-11-15T19:36:43.694Z,82.75
2022-11-15T19:39:14.627Z,83.13
2022-11-15T19:41:43.170Z,83.43
2022-11-15T19:44:11.958Z,82.74
2022-11-15T19:46:39.415Z,82.14
2022-11-15T19:49:08.152Z,82.85
2022-11-15T19:51:35.080Z,82.90
2022-11-15T19:54:06.766Z,83.18
2022-11-15T19:56:35.281Z,84.25
2022-11-15T19:59:03.170Z,82.98
2022-11-15T20:01:32.583Z,83.86
2022-11-15T20:04:00.921Z,83.22
2022-11-15T20:06:30.762Z,83.45
2022-11-15T20:08:58.271Z,83.11
2022-11-15T20:11:26.238Z,82.93
2022-11-15T20:14:00.508Z,83.48
2022-11-15T20:16:27.760Z,82.80
2022-11-15T20:18:54.783Z,83.89
2022-11-15T20:21:22.332Z,83.73
2022-11-15T20:23:51.142Z,83.06
2022-11-15T20:26:19.749Z,82.99
2022-11-15T20:28:48.258Z,83.41
2022-11-15T20:31:16.175Z,83.02
2022-11-15T20:33:43.115Z,82.68
2022-11-15T20:36:13.549Z,82.51
2022-11-15T20:38:40.681Z,81.86
2022-11-15T20:41:07.763Z,82.35
2022-11-15T20:43:34.866Z,82.90
2022-11-15T20:46:01.828Z,83.77
2022-11-15T20:48:28.871Z,84.31
2022-11-15T20:51:13.063Z,83.81
2022-11-15T20:53:41.124Z,83.31
2022-11-15T20:56:11.424Z,82.95
2022-11-15T20:58:38.944Z,82.44
2022-11-15T21:01:07.756Z,82.85
2022-11-15T21:03:35.063Z,84.41
2022-11-15T21:06:02.316Z,84.71
2022-11-15T21:08:49.996Z,84.54
2022-11-15T21:11:35.564Z,82.96
2022-11-15T21:14:07.770Z,83.39
2022-11-15T21:16:36.225Z,82.63
2022-11-15T21:19:03.176Z,81.96
2022-11-15T21:21:30.113Z,81.83
2022-11-15T21:23:57.026Z,82.15
2022-11-15T21:26:23.991Z,81.80
2022-11-15T21:28:50.889Z,81.64
2022-11-15T21:31:17.804Z,81.32
2022-11-15T21:33:44.782Z,81.67
2022-11-15T21:36:11.710Z,81.88
2022-11-15T21:38:38.748Z,81.93
2022-11-15T21:41:06.173Z,81.55
2022-11-15T21:43:33.398Z,81.28
2022-11-15T21:46:02.989Z,81.22
2022-11-15T21:48:31.769Z,80.88
2022-11-15T21:51:10.892Z,80.36
2022-11-15T21:53:37.828Z,81.08
2022-11-15T21:56:05.107Z,80.24
2022-11-15T21:58:32.267Z,79.60
2022-11-15T22:01:18.413Z,79.31
2022-11-15T22:03:46.036Z,79.39
2022-11-15T22:06:17.456Z,78.71
2022-11-15T22:08:46.338Z,79.20
2022-11-15T22:11:14.377Z,78.69
2022-11-15T22:13:41.744Z,79.11
2022-11-15T22:16:09.583Z,78.70
2022-11-15T22:18:37.666Z,79.03
2022-11-15T22:21:07.875Z,78.77
2022-11-15T22:23:35.373Z,79.00
2022-11-15T22:26:02.606Z,78.75
2022-11-15T22:28:30.571Z,78.88
2022-11-15T22:30:58.551Z,79.07
2022-11-15T22:33:27.805Z,79.08
2022-11-15T22:35:54.945Z,78.52
2022-11-15T22:38:22.506Z,78.61
2022-11-15T22:40:50.019Z,78.03
2022-11-15T22:43:19.284Z,78.48
2022-11-15T22:45:52.028Z,78.63
2022-11-15T22:48:30.465Z,78.66
2022-11-15T22:50:58.092Z,78.80
2022-11-15T22:53:25.486Z,79.03
2022-11-15T22:55:54.629Z,79.52
2022-11-15T22:58:23.235Z,79.85
2022-11-15T23:00:55.489Z,78.77
2022-11-15T23:03:23.584Z,78.51
2022-11-15T23:05:50.929Z,78.90
2022-11-15T23:08:18.863Z,78.37
2022-11-15T23:11:04.698Z,78.33
2022-11-15T23:13:33.276Z,78.82
2022-11-15T23:16:22.594Z,78.66
2022-11-15T23:18:51.737Z,78.13
2022-11-15T23:21:58.193Z,78.42
2022-11-15T23:24:25.825Z,78.56
2022-11-15T23:26:55.783Z,78.74
2022-11-15T23:29:25.137Z,78.43
2022-11-15T23:32:11.920Z,78.57
2022-11-15T23:34:41.322Z,78.60
2022-11-15T23:37:10.605Z,78.72
2022-11-15T23:39:37.652Z,78.79
2022-11-15T23:42:09.012Z,78.30
2022-11-15T23:44:36.984Z,78.61
2022-11-15T23:47:03.984Z,79.60
2022-11-15T23:49:30.987Z,78.86
2022-11-15T23:51:57.950Z,78.86
2022-11-15T23:54:24.871Z,79.13
2022-11-15T23:56:51.844Z,79.18
2022-11-15T23:59:18.834Z,80.09
